sensor_id;sensor_type;location;lat;lon;timestamp;pressure;altitude;pressure_sealevel;temperature;humidity
66627;BME280;53498;50.422;14.912;2022-10-16T00:00:39;99025.25;;;13.68;100.00
66627;BME280;53498;50.422;14.912;2022-10-16T00:03:25;99032.25;;;13.65;100.00
66627;BME280;53498;50.422;14.912;2022-10-16T00:05:51;99027.03;;;13.65;100.00
66627;BME280;53498;50.422;14.912;2022-10-16T00:08:16;99033.16;;;13.64;100.00
66627;BME280;53498;50.422;14.912;2022-10-16T00:10:42;99033.16;;;13.64;100.00
66627;BME280;53498;50.422;14.912;2022-10-16T00:13:07;99036.66;;;13.63;100.00
66627;BME280;53498;50.422;14.912;2022-10-16T00:15:35;99025.34;;;13.61;100.00
66627;BME280;53498;50.422;14.912;2022-10-16T00:18:04;99029.78;;;13.53;100.00
66627;BME280;53498;50.422;14.912;2022-10-16T00:20:33;99032.38;;;13.58;100.00
66627;BME280;53498;50.422;14.912;2022-10-16T00:22:59;99027.97;;;13.60;100.00
66627;BME280;53498;50.422;14.912;2022-10-16T00:25:24;99031.44;;;13.62;100.00
66627;BME280;53498;50.422;14.912;2022-10-16T00:27:53;99028.03;;;13.55;100.00
66627;BME280;53498;50.422;14.912;2022-10-16T00:30:18;99033.25;;;13.55;100.00
66627;BME280;53498;50.422;14.912;2022-10-16T00:32:44;99027.19;;;13.53;100.00
66627;BME280;53498;50.422;14.912;2022-10-16T00:35:09;99027.19;;;13.53;100.00
66627;BME280;53498;50.422;14.912;2022-10-16T00:37:35;99021.94;;;13.53;100.00
66627;BME280;53498;50.422;14.912;2022-10-16T00:40:01;99031.50;;;13.56;100.00
66627;BME280;53498;50.422;14.912;2022-10-16T00:42:26;99030.63;;;13.57;100.00
66627;BME280;53498;50.422;14.912;2022-10-16T00:44:53;99036.69;;;13.60;100.00
66627;BME280;53498;50.422;14.912;2022-10-16T00:47:29;99044.47;;;13.67;100.00
66627;BME280;53498;50.422;14.912;2022-10-16T00:50:13;99044.38;;;13.71;100.00
66627;BME280;53498;50.422;14.912;2022-10-16T00:52:44;99049.59;;;13.73;100.00
66627;BME280;53498;50.422;14.912;2022-10-16T00:55:11;99047.81;;;13.75;100.00
66627;BME280;53498;50.422;14.912;2022-10-16T00:57:38;99049.59;;;13.73;100.00
66627;BME280;53498;50.422;14.912;2022-10-16T01:00:06;99052.19;;;13.76;100.00
66627;BME280;53498;50.422;14.912;2022-10-16T01:02:32;99055.63;;;13.78;100.00
66627;BME280;53498;50.422;14.912;2022-10-16T01:04:58;99059.09;;;13.80;100.00
66627;BME280;53498;50.422;14.912;2022-10-16T01:10:27;99062.53;;;13.83;100.00
66627;BME280;53498;50.422;14.912;2022-10-16T01:13:27;99067.63;;;13.93;100.00
66627;BME280;53498;50.422;14.912;2022-10-16T01:16:04;99067.72;;;13.86;100.00
66627;BME280;53498;50.422;14.912;2022-10-16T01:18:44;99065.09;;;13.85;100.00
66627;BME280;53498;50.422;14.912;2022-10-16T01:21:22;99066.97;;;13.77;100.00
66627;BME280;53498;50.422;14.912;2022-10-16T01:29:44;99070.50;;;13.74;100.00
66627;BME280;53498;50.422;14.912;2022-10-16T01:32:20;99072.28;;;13.71;100.00
66627;BME280;53498;50.422;14.912;2022-10-16T01:34:53;99069.72;;;13.66;100.00
66627;BME280;53498;50.422;14.912;2022-10-16T01:37:39;99072.31;;;13.68;100.00
66627;BME280;53498;50.422;14.912;2022-10-16T01:40:11;99080.16;;;13.66;100.00
66627;BME280;53498;50.422;14.912;2022-10-16T01:42:44;99072.31;;;13.68;100.00
66627;BME280;53498;50.422;14.912;2022-10-16T01:45:13;99076.75;;;13.61;100.00
66627;BME280;53498;50.422;14.912;2022-10-16T01:47:40;99060.22;;;13.60;100.00
66627;BME280;53498;50.422;14.912;2022-10-16T01:50:09;99061.97;;;13.58;100.00
66627;BME280;53498;50.422;14.912;2022-10-16T01:52:38;99070.72;;;13.57;100.00
66627;BME280;53498;50.422;14.912;2022-10-16T01:55:06;99062.91;;;13.53;100.00
66627;BME280;53498;50.422;14.912;2022-10-16T01:57:36;99061.13;;;13.56;100.00
66627;BME280;53498;50.422;14.912;2022-10-16T02:00:10;99058.53;;;13.55;100.00
66627;BME280;53498;50.422;14.912;2022-10-16T02:02:39;99062.84;;;13.59;100.00
66627;BME280;53498;50.422;14.912;2022-10-16T02:05:14;99065.47;;;13.57;100.00
66627;BME280;53498;50.422;14.912;2022-10-16T02:07:41;99058.44;;;13.62;100.00
66627;BME280;53498;50.422;14.912;2022-10-16T02:10:08;99054.06;;;13.63;100.00
66627;BME280;53498;50.422;14.912;2022-10-16T02:12:36;99053.28;;;13.56;100.00
66627;BME280;53498;50.422;14.912;2022-10-16T02:15:05;99047.97;;;13.62;100.00
66627;BME280;53498;50.422;14.912;2022-10-16T02:17:31;99047.94;;;13.65;100.00
66627;BME280;53498;50.422;14.912;2022-10-16T02:19:58;99054.91;;;13.67;100.00
66627;BME280;53498;50.422;14.912;2022-10-16T02:22:39;99044.47;;;13.67;100.00
66627;BME280;53498;50.422;14.912;2022-10-16T02:25:29;99052.25;;;13.68;100.00
66627;BME280;53498;50.422;14.912;2022-10-16T02:28:24;99050.50;;;13.69;100.00
66627;BME280;53498;50.422;14.912;2022-10-16T02:30:57;99052.25;;;13.68;100.00
66627;BME280;53498;50.422;14.912;2022-10-16T02:33:25;99046.19;;;13.68;100.00
66627;BME280;53498;50.422;14.912;2022-10-16T02:35:52;99048.75;;;13.69;100.00
66627;BME280;53498;50.422;14.912;2022-10-16T02:38:20;99044.41;;;13.70;100.00
66627;BME280;53498;50.422;14.912;2022-10-16T02:40:46;99054.88;;;13.68;100.00
66627;BME280;53498;50.422;14.912;2022-10-16T02:43:12;99063.59;;;13.69;100.00
66627;BME280;53498;50.422;14.912;2022-10-16T02:45:38;99074.06;;;13.65;100.00
66627;BME280;53498;50.422;14.912;2022-10-16T02:48:04;99075.84;;;13.65;100.00
66627;BME280;53498;50.422;14.912;2022-10-16T02:50:29;99074.06;;;13.67;100.00
66627;BME280;53498;50.422;14.912;2022-10-16T02:52:55;99072.28;;;13.71;100.00
66627;BME280;53498;50.422;14.912;2022-10-16T02:55:20;99072.28;;;13.69;100.00
66627;BME280;53498;50.422;14.912;2022-10-16T02:57:46;99070.56;;;13.70;100.00
66627;BME280;53498;50.422;14.912;2022-10-16T03:00:13;99081.88;;;13.69;100.00
66627;BME280;53498;50.422;14.912;2022-10-16T03:02:40;99075.78;;;13.70;100.00
66627;BME280;53498;50.422;14.912;2022-10-16T03:05:05;99074.91;;;13.69;100.00
66627;BME280;53498;50.422;14.912;2022-10-16T03:07:31;99076.66;;;13.69;100.00
66627;BME280;53498;50.422;14.912;2022-10-16T03:09:57;99072.31;;;13.68;100.00
66627;BME280;53498;50.422;14.912;2022-10-16T03:12:28;99081.88;;;13.70;100.00
66627;BME280;53498;50.422;14.912;2022-10-16T03:14:55;99070.63;;;13.63;100.00
66627;BME280;53498;50.422;14.912;2022-10-16T03:17:22;99074.09;;;13.64;100.00
66627;BME280;53498;50.422;14.912;2022-10-16T03:19:47;99083.72;;;13.63;100.00
66627;BME280;53498;50.422;14.912;2022-10-16T03:22:13;99087.22;;;13.61;100.00
66627;BME280;53498;50.422;14.912;2022-10-16T03:24:39;99092.41;;;13.64;100.00
66627;BME280;53498;50.422;14.912;2022-10-16T03:27:04;99104.53;;;13.70;100.00
66627;BME280;53498;50.422;14.912;2022-10-16T03:29:30;99093.19;;;13.71;100.00
66627;BME280;53498;50.422;14.912;2022-10-16T03:31:57;99098.47;;;13.68;100.00
66627;BME280;53498;50.422;14.912;2022-10-16T03:34:22;99098.47;;;13.68;100.00
66627;BME280;53498;50.422;14.912;2022-10-16T03:36:48;99095.81;;;13.69;100.00
66627;BME280;53498;50.422;14.912;2022-10-16T03:39:14;99094.94;;;13.70;100.00
66627;BME280;53498;50.422;14.912;2022-10-16T03:41:39;99099.31;;;13.70;100.00
66627;BME280;53498;50.422;14.912;2022-10-16T03:44:05;99100.13;;;13.72;100.00
66627;BME280;53498;50.422;14.912;2022-10-16T03:46:31;99112.38;;;13.70;100.00
66627;BME280;53498;50.422;14.912;2022-10-16T03:48:56;99115.91;;;13.65;100.00
66627;BME280;53498;50.422;14.912;2022-10-16T03:51:22;99117.63;;;13.68;100.00
66627;BME280;53498;50.422;14.912;2022-10-16T03:53:47;99122.84;;;13.68;100.00
66627;BME280;53498;50.422;14.912;2022-10-16T03:56:13;99123.75;;;13.67;100.00
66627;BME280;53498;50.422;14.912;2022-10-16T03:58:38;99131.53;;;13.69;100.00
66627;BME280;53498;50.422;14.912;2022-10-16T04:01:04;99128.06;;;13.70;100.00
66627;BME280;53498;50.422;14.912;2022-10-16T04:03:29;99126.28;;;13.72;100.00
66627;BME280;53498;50.422;14.912;2022-10-16T04:05:57;99119.34;;;13.71;100.00
66627;BME280;53498;50.422;14.912;2022-10-16T04:08:23;99115.88;;;13.69;100.00
66627;BME280;53498;50.422;14.912;2022-10-16T04:10:49;99118.47;;;13.70;100.00
66627;BME280;53498;50.422;14.912;2022-10-16T04:13:15;99119.34;;;13.71;100.00
66627;BME280;53498;50.422;14.912;2022-10-16T04:15:40;99128.00;;;13.76;100.00
66627;BME280;53498;50.422;14.912;2022-10-16T04:18:06;99128.88;;;13.76;100.00
66627;BME280;53498;50.422;14.912;2022-10-16T04:20:33;99134.09;;;13.75;100.00
66627;BME280;53498;50.422;14.912;2022-10-16T04:23:02;99140.19;;;13.77;100.00
66627;BME280;53498;50.422;14.912;2022-10-16T04:25:27;99144.63;;;13.69;100.00
66627;BME280;53498;50.422;14.912;2022-10-16T04:27:54;99139.34;;;13.72;100.00
66627;BME280;53498;50.422;14.912;2022-10-16T04:30:20;99147.22;;;13.69;100.00
66627;BME280;53498;50.422;14.912;2022-10-16T04:32:50;99146.34;;;13.73;100.00
66627;BME280;53498;50.422;14.912;2022-10-16T04:35:17;99147.22;;;13.70;100.00
66627;BME280;53498;50.422;14.912;2022-10-16T04:37:45;99150.66;;;13.74;100.00
66627;BME280;53498;50.422;14.912;2022-10-16T04:40:11;99149.78;;;13.75;100.00
66627;BME280;53498;50.422;14.912;2022-10-16T04:42:37;99154.16;;;13.76;100.00
66627;BME280;53498;50.422;14.912;2022-10-16T04:45:04;99155.88;;;13.77;100.00
66627;BME280;53498;50.422;14.912;2022-10-16T04:47:29;99158.56;;;13.71;100.00
66627;BME280;53498;50.422;14.912;2022-10-16T04:49:55;99159.47;;;13.67;100.00
66627;BME280;53498;50.422;14.912;2022-10-16T04:52:21;99161.19;;;13.68;100.00
66627;BME280;53498;50.422;14.912;2022-10-16T04:54:50;99155.97;;;13.66;100.00
66627;BME280;53498;50.422;14.912;2022-10-16T04:57:16;99163.84;;;13.64;100.00
66627;BME280;53498;50.422;14.912;2022-10-16T04:59:42;99155.16;;;13.64;100.00
66627;BME280;53498;50.422;14.912;2022-10-16T05:02:07;99141.22;;;13.62;100.00
66627;BME280;53498;50.422;14.912;2022-10-16T05:04:33;99140.34;;;13.61;100.00
66627;BME280;53498;50.422;14.912;2022-10-16T05:06:58;99136.06;;;13.57;100.00
66627;BME280;53498;50.422;14.912;2022-10-16T05:09:24;99127.28;;;13.61;100.00
66627;BME280;53498;50.422;14.912;2022-10-16T05:11:49;99131.63;;;13.62;100.00
66627;BME280;53498;50.422;14.912;2022-10-16T05:14:15;99133.38;;;13.63;100.00
66627;BME280;53498;50.422;14.912;2022-10-16T05:16:40;99132.44;;;13.66;100.00
66627;BME280;53498;50.422;14.912;2022-10-16T05:19:06;99135.06;;;13.68;100.00
66627;BME280;53498;50.422;14.912;2022-10-16T05:21:31;99136.78;;;13.69;100.00
66627;BME280;53498;50.422;14.912;2022-10-16T05:23:57;99135.88;;;13.71;100.00
66627;BME280;53498;50.422;14.912;2022-10-16T05:26:22;99139.34;;;13.73;100.00
66627;BME280;53498;50.422;14.912;2022-10-16T05:28:49;99140.19;;;13.77;100.00
66627;BME280;53498;50.422;14.912;2022-10-16T05:31:15;99154.16;;;13.76;100.00
66627;BME280;53498;50.422;14.912;2022-10-16T05:33:40;99162.78;;;13.82;100.00
66627;BME280;53498;50.422;14.912;2022-10-16T05:36:08;99165.41;;;13.82;100.00
66627;BME280;53498;50.422;14.912;2022-10-16T05:38:35;99168.84;;;13.86;100.00
66627;BME280;53498;50.422;14.912;2022-10-16T05:41:01;99164.47;;;13.85;100.00
66627;BME280;53498;50.422;14.912;2022-10-16T05:43:28;99171.44;;;13.86;100.00
66627;BME280;53498;50.422;14.912;2022-10-16T05:45:58;99175.78;;;13.87;100.00
66627;BME280;53498;50.422;14.912;2022-10-16T05:48:24;99178.41;;;13.87;100.00
66627;BME280;53498;50.422;14.912;2022-10-16T05:51:07;99180.13;;;13.88;100.00
66627;BME280;53498;50.422;14.912;2022-10-16T05:53:36;99181.88;;;13.87;100.00
66627;BME280;53498;50.422;14.912;2022-10-16T05:56:03;99183.63;;;13.87;100.00
66627;BME280;53498;50.422;14.912;2022-10-16T05:58:31;99187.25;;;13.77;100.00
66627;BME280;53498;50.422;14.912;2022-10-16T06:00:59;99188.94;;;13.82;100.00
66627;BME280;53498;50.422;14.912;2022-10-16T06:03:26;99191.47;;;13.87;100.00
66627;BME280;53498;50.422;14.912;2022-10-16T06:05:51;99196.66;;;13.90;100.00
66627;BME280;53498;50.422;14.912;2022-10-16T06:08:21;99196.66;;;13.90;100.00
66627;BME280;53498;50.422;14.912;2022-10-16T06:10:47;99203.69;;;13.86;100.00
66627;BME280;53498;50.422;14.912;2022-10-16T06:13:13;99201.03;;;13.89;100.00
66627;BME280;53498;50.422;14.912;2022-10-16T06:15:40;99208.88;;;13.89;100.00
66627;BME280;53498;50.422;14.912;2022-10-16T06:18:08;99205.38;;;13.92;100.00
66627;BME280;53498;50.422;14.912;2022-10-16T06:20:34;99212.41;;;13.87;100.00
66627;BME280;53498;50.422;14.912;2022-10-16T06:23:00;99217.59;;;13.90;100.00
66627;BME280;53498;50.422;14.912;2022-10-16T06:25:29;99222.75;;;13.98;100.00
66627;BME280;53498;50.422;14.912;2022-10-16T06:27:54;99221.81;;;14.00;100.00
66627;BME280;53498;50.422;14.912;2022-10-16T06:30:20;99227.94;;;14.01;100.00
66627;BME280;53498;50.422;14.912;2022-10-16T06:32:45;99232.22;;;14.08;100.00
66627;BME280;53498;50.422;14.912;2022-10-16T06:35:11;99234.84;;;14.06;100.00
66627;BME280;53498;50.422;14.912;2022-10-16T06:37:36;99242.69;;;14.06;100.00
66627;BME280;53498;50.422;14.912;2022-10-16T06:40:02;99247.88;;;14.09;100.00
66627;BME280;53498;50.422;14.912;2022-10-16T06:42:29;99261.75;;;14.16;100.00
66627;BME280;53498;50.422;14.912;2022-10-16T06:44:55;99258.25;;;14.20;100.00
66627;BME280;53498;50.422;14.912;2022-10-16T06:47:21;99267.78;;;14.26;100.00
66627;BME280;53498;50.422;14.912;2022-10-16T06:49:46;99271.25;;;14.25;100.00
66627;BME280;53498;50.422;14.912;2022-10-16T06:52:12;99278.31;;;14.18;100.00
66627;BME280;53498;50.422;14.912;2022-10-16T06:54:37;99277.44;;;14.16;100.00
66627;BME280;53498;50.422;14.912;2022-10-16T06:57:03;99273.03;;;14.23;100.00
66627;BME280;53498;50.422;14.912;2022-10-16T06:59:29;99268.72;;;14.20;100.00
66627;BME280;53498;50.422;14.912;2022-10-16T07:01:54;99273.88;;;14.25;100.00
66627;BME280;53498;50.422;14.912;2022-10-16T07:04:20;99266.03;;;14.26;100.00
66627;BME280;53498;50.422;14.912;2022-10-16T07:06:45;99275.63;;;14.26;100.00
66627;BME280;53498;50.422;14.912;2022-10-16T07:09:11;99268.59;;;14.28;100.00
66627;BME280;53498;50.422;14.912;2022-10-16T07:11:38;99271.94;;;14.41;100.00
66627;BME280;53498;50.422;14.912;2022-10-16T07:14:12;99278.91;;;14.43;100.00
66627;BME280;53498;50.422;14.912;2022-10-16T07:16:40;99275.44;;;14.38;100.00
66627;BME280;53498;50.422;14.912;2022-10-16T07:19:06;99292.84;;;14.45;100.00
66627;BME280;53498;50.422;14.912;2022-10-16T07:21:34;99304.91;;;14.57;100.00
66627;BME280;53498;50.422;14.912;2022-10-16T07:24:01;99309.19;;;14.66;100.00
66627;BME280;53498;50.422;14.912;2022-10-16T07:26:28;99315.34;;;14.62;100.00
66627;BME280;53498;50.422;14.912;2022-10-16T07:28:55;99321.38;;;14.70;100.00
66627;BME280;53498;50.422;14.912;2022-10-16T07:31:22;99318.66;;;14.76;100.00
66627;BME280;53498;50.422;14.912;2022-10-16T07:33:49;99317.66;;;14.85;100.00
66627;BME280;53498;50.422;14.912;2022-10-16T07:36:17;99320.25;;;14.89;100.00
66627;BME280;53498;50.422;14.912;2022-10-16T07:38:44;99320.25;;;14.89;100.00
66627;BME280;53498;50.422;14.912;2022-10-16T07:41:12;99320.16;;;14.95;100.00
66627;BME280;53498;50.422;14.912;2022-10-16T07:43:40;99321.78;;;15.02;100.00
66627;BME280;53498;50.422;14.912;2022-10-16T07:46:06;99325.41;;;14.94;100.00
66627;BME280;53498;50.422;14.912;2022-10-16T07:48:33;99332.41;;;14.93;100.00
66627;BME280;53498;50.422;14.912;2022-10-16T07:51:04;99326.34;;;14.88;100.00
66627;BME280;53498;50.422;14.912;2022-10-16T07:53:31;99332.34;;;14.98;100.00
66627;BME280;53498;50.422;14.912;2022-10-16T07:56:01;99334.94;;;14.99;100.00
66627;BME280;53498;50.422;14.912;2022-10-16T07:58:28;99338.41;;;15.01;100.00
66627;BME280;53498;50.422;14.912;2022-10-16T08:00:58;99348.13;;;14.93;100.00
66627;BME280;53498;50.422;14.912;2022-10-16T08:03:24;99349.78;;;14.97;100.00
66627;BME280;53498;50.422;14.912;2022-10-16T08:05:50;99349.78;;;14.97;100.00
66627;BME280;53498;50.422;14.912;2022-10-16T08:08:18;99347.25;;;14.91;100.00
66627;BME280;53498;50.422;14.912;2022-10-16T08:10:44;99354.97;;;15.03;100.00
66627;BME280;53498;50.422;14.912;2022-10-16T08:13:10;99356.72;;;15.04;100.00
66627;BME280;53498;50.422;14.912;2022-10-16T08:15:36;99352.34;;;15.05;100.00
66627;BME280;53498;50.422;14.912;2022-10-16T08:18:04;99352.25;;;15.10;100.00
66627;BME280;53498;50.422;14.912;2022-10-16T08:20:31;99355.91;;;14.99;100.00
66627;BME280;53498;50.422;14.912;2022-10-16T08:22:59;99353.22;;;15.02;100.00
66627;BME280;53498;50.422;14.912;2022-10-16T08:25:25;99353.22;;;15.02;100.00
66627;BME280;53498;50.422;14.912;2022-10-16T08:27:53;99350.31;;;15.24;100.00
66627;BME280;53498;50.422;14.912;2022-10-16T08:30:20;99349.16;;;15.43;100.00
66627;BME280;53498;50.422;14.912;2022-10-16T08:32:46;99347.16;;;15.61;100.00
66627;BME280;53498;50.422;14.912;2022-10-16T08:35:13;99353.22;;;15.63;100.00
66627;BME280;53498;50.422;14.912;2022-10-16T08:37:39;99358.41;;;15.69;100.00
66627;BME280;53498;50.422;14.912;2022-10-16T08:40:07;99355.72;;;15.72;100.00
66627;BME280;53498;50.422;14.912;2022-10-16T08:46:10;99356.47;;;15.80;100.00
66627;BME280;53498;50.422;14.912;2022-10-16T08:48:47;99351.19;;;15.82;100.00
66627;BME280;53498;50.422;14.912;2022-10-16T08:51:33;99353.72;;;15.88;100.00
66627;BME280;53498;50.422;14.912;2022-10-16T08:54:15;99358.84;;;15.95;100.00
66627;BME280;53498;50.422;14.912;2022-10-16T08:56:44;99360.47;;;16.03;100.00
66627;BME280;53498;50.422;14.912;2022-10-16T08:59:10;99364.19;;;15.89;100.00
66627;BME280;53498;50.422;14.912;2022-10-16T09:01:41;99371.69;;;16.11;100.00
66627;BME280;53498;50.422;14.912;2022-10-16T09:12:48;99387.34;;;16.17;100.00
66627;BME280;53498;50.422;14.912;2022-10-16T09:18:15;99386.84;;;16.43;100.00
66627;BME280;53498;50.422;14.912;2022-10-16T09:21:03;99392.09;;;16.43;100.00
66627;BME280;53498;50.422;14.912;2022-10-16T09:23:37;99388.53;;;16.47;100.00
66627;BME280;53498;50.422;14.912;2022-10-16T09:26:04;99385.06;;;16.45;100.00
66627;BME280;53498;50.422;14.912;2022-10-16T09:28:31;99378.06;;;16.46;100.00
66627;BME280;53498;50.422;14.912;2022-10-16T09:30:57;99370.09;;;16.50;100.00
66627;BME280;53498;50.422;14.912;2022-10-16T09:33:27;99361.75;;;16.28;100.00
66627;BME280;53498;50.422;14.912;2022-10-16T09:35:56;99359.22;;;16.22;100.00
66627;BME280;53498;50.422;14.912;2022-10-16T09:38:34;99362.59;;;16.30;100.00
66627;BME280;53498;50.422;14.912;2022-10-16T09:41:03;99370.19;;;16.46;100.00
66627;BME280;53498;50.422;14.912;2022-10-16T09:43:40;99369.94;;;16.58;100.00
66627;BME280;53498;50.422;14.912;2022-10-16T09:46:19;99373.22;;;16.69;100.00
66627;BME280;53498;50.422;14.912;2022-10-16T09:48:50;99379.44;;;16.63;100.00
66627;BME280;53498;50.422;14.912;2022-10-16T09:51:28;99373.78;;;16.86;100.00
66627;BME280;53498;50.422;14.912;2022-10-16T09:56:34;99371.53;;;17.10;100.00
66627;BME280;53498;50.422;14.912;2022-10-16T09:59:12;99373.41;;;17.03;100.00
66627;BME280;53498;50.422;14.912;2022-10-16T10:01:41;99387.13;;;17.18;100.00
66627;BME280;53498;50.422;14.912;2022-10-16T10:04:08;99388.72;;;17.25;100.00
66627;BME280;53498;50.422;14.912;2022-10-16T10:06:36;99390.19;;;17.38;100.00
66627;BME280;53498;50.422;14.912;2022-10-16T10:09:06;99396.22;;;17.42;100.00
66627;BME280;53498;50.422;14.912;2022-10-16T10:11:50;99380.25;;;17.51;100.00
66627;BME280;53498;50.422;14.912;2022-10-16T10:17:00;99386.19;;;17.59;100.00
66627;BME280;53498;50.422;14.912;2022-10-16T10:19:27;99383.91;;;17.44;100.00
66627;BME280;53498;50.422;14.912;2022-10-16T10:21:53;99384.78;;;17.44;100.00
66627;BME280;53498;50.422;14.912;2022-10-16T10:24:19;99377.31;;;17.63;100.00
66627;BME280;53498;50.422;14.912;2022-10-16T10:27:00;99383.13;;;17.79;100.00
66627;BME280;53498;50.422;14.912;2022-10-16T10:37:32;99371.53;;;17.86;100.00
66627;BME280;53498;50.422;14.912;2022-10-16T10:40:15;99377.53;;;17.93;99.99
66627;BME280;53498;50.422;14.912;2022-10-16T10:42:52;99373.47;;;18.14;100.00
66627;BME280;53498;50.422;14.912;2022-10-16T10:45:30;99372.25;;;18.27;100.00
66627;BME280;53498;50.422;14.912;2022-10-16T10:53:51;99372.13;;;18.32;97.00
66627;BME280;53498;50.422;14.912;2022-10-16T10:56:57;99389.81;;;18.59;97.16
66627;BME280;53498;50.422;14.912;2022-10-16T10:59:46;99384.47;;;18.62;96.60
66627;BME280;53498;50.422;14.912;2022-10-16T11:02:33;99377.97;;;18.76;97.67
66627;BME280;53498;50.422;14.912;2022-10-16T11:05:27;99374.25;;;18.83;96.14
66627;BME280;53498;50.422;14.912;2022-10-16T11:08:00;99379.03;;;18.68;96.44
66627;BME280;53498;50.422;14.912;2022-10-16T11:10:40;99371.06;;;18.70;95.97
66627;BME280;53498;50.422;14.912;2022-10-16T11:16:00;99364.72;;;18.79;96.57
66627;BME280;53498;50.422;14.912;2022-10-16T11:18:38;99372.47;;;18.83;96.63
66627;BME280;53498;50.422;14.912;2022-10-16T11:21:10;99378.38;;;18.93;96.14
66627;BME280;53498;50.422;14.912;2022-10-16T11:26:24;99372.19;;;18.94;95.69
66627;BME280;53498;50.422;14.912;2022-10-16T11:28:53;99375.94;;;18.85;95.12
66627;BME280;53498;50.422;14.912;2022-10-16T11:31:43;99389.19;;;18.84;95.87
66627;BME280;53498;50.422;14.912;2022-10-16T11:34:21;99393.47;;;18.86;95.84
66627;BME280;53498;50.422;14.912;2022-10-16T11:39:24;99389.94;;;18.87;95.86
66627;BME280;53498;50.422;14.912;2022-10-16T11:41:54;99387.16;;;18.92;95.88
66627;BME280;53498;50.422;14.912;2022-10-16T11:49:50;99378.97;;;19.03;94.72
66627;BME280;53498;50.422;14.912;2022-10-16T11:54:57;99380.75;;;19.02;94.47
66627;BME280;53498;50.422;14.912;2022-10-16T11:57:28;99385.72;;;19.11;94.45
66627;BME280;53498;50.422;14.912;2022-10-16T11:59:58;99379.47;;;19.15;95.54
66627;BME280;53498;50.422;14.912;2022-10-16T12:03:15;99380.03;;;19.25;93.10
66627;BME280;53498;50.422;14.912;2022-10-16T12:08:11;99381.25;;;19.43;91.10
66627;BME280;53498;50.422;14.912;2022-10-16T12:10:39;99376.59;;;19.51;92.50
66627;BME280;53498;50.422;14.912;2022-10-16T12:13:35;99379.22;;;19.51;90.06
66627;BME280;53498;50.422;14.912;2022-10-16T12:18:44;99380.41;;;19.71;89.68
66627;BME280;53498;50.422;14.912;2022-10-16T12:21:12;99379.31;;;19.78;88.59
66627;BME280;53498;50.422;14.912;2022-10-16T12:23:51;99377.31;;;19.84;90.00
66627;BME280;53498;50.422;14.912;2022-10-16T12:26:28;99375.25;;;19.94;88.68
66627;BME280;53498;50.422;14.912;2022-10-16T12:28:55;99375.69;;;20.07;87.94
66627;BME280;53498;50.422;14.912;2022-10-16T12:31:37;99380.44;;;20.22;86.21
66627;BME280;53498;50.422;14.912;2022-10-16T12:34:22;99379.81;;;20.16;85.80
66627;BME280;53498;50.422;14.912;2022-10-16T12:36:50;99386.38;;;20.02;83.72
66627;BME280;53498;50.422;14.912;2022-10-16T12:39:27;99382.09;;;20.00;85.93
66627;BME280;53498;50.422;14.912;2022-10-16T12:42:05;99381.94;;;20.04;86.10
66627;BME280;53498;50.422;14.912;2022-10-16T12:44:35;99379.19;;;20.07;85.21
66627;BME280;53498;50.422;14.912;2022-10-16T12:47:18;99377.47;;;20.06;84.84
66627;BME280;53498;50.422;14.912;2022-10-16T12:49:52;99384.44;;;20.09;86.03
66627;BME280;53498;50.422;14.912;2022-10-16T12:54:59;99386.38;;;20.02;85.27
66627;BME280;53498;50.422;14.912;2022-10-16T13:00:56;99391.66;;;20.02;86.91
66627;BME280;53498;50.422;14.912;2022-10-16T13:06:35;99392.50;;;20.04;87.93
66627;BME280;53498;50.422;14.912;2022-10-16T13:12:07;99387.00;;;20.10;86.92
66627;BME280;53498;50.422;14.912;2022-10-16T13:17:20;99383.44;;;20.11;85.26
66627;BME280;53498;50.422;14.912;2022-10-16T13:20:12;99383.22;;;20.18;84.56
66627;BME280;53498;50.422;14.912;2022-10-16T13:22:50;99376.22;;;20.17;83.62
66627;BME280;53498;50.422;14.912;2022-10-16T13:28:06;99382.66;;;20.09;84.13
66627;BME280;53498;50.422;14.912;2022-10-16T13:30:42;99378.16;;;20.11;84.42
66627;BME280;53498;50.422;14.912;2022-10-16T13:33:18;99387.00;;;20.10;85.86
66627;BME280;53498;50.422;14.912;2022-10-16T13:35:50;99386.38;;;20.02;85.58
66627;BME280;53498;50.422;14.912;2022-10-16T13:38:18;99387.28;;;20.03;83.60
66627;BME280;53498;50.422;14.912;2022-10-16T13:41:04;99394.81;;;20.14;82.42
66627;BME280;53498;50.422;14.912;2022-10-16T13:43:42;99395.75;;;20.13;84.78
66627;BME280;53498;50.422;14.912;2022-10-16T13:46:14;99398.50;;;20.09;84.86
66627;BME280;53498;50.422;14.912;2022-10-16T13:48:41;99405.56;;;20.09;85.67
66627;BME280;53498;50.422;14.912;2022-10-16T13:51:18;99405.75;;;20.03;86.06
66627;BME280;53498;50.422;14.912;2022-10-16T13:53:45;99395.41;;;19.97;85.84
66627;BME280;53498;50.422;14.912;2022-10-16T13:56:21;99403.44;;;19.94;85.93
66627;BME280;53498;50.422;14.912;2022-10-16T13:59:01;99407.13;;;19.88;86.30
66627;BME280;53498;50.422;14.912;2022-10-16T14:01:33;99411.75;;;19.81;86.16
66627;BME280;53498;50.422;14.912;2022-10-16T14:04:02;99414.41;;;19.80;85.95
66627;BME280;53498;50.422;14.912;2022-10-16T14:06:29;99406.00;;;19.69;87.43
66627;BME280;53498;50.422;14.912;2022-10-16T14:09:07;99409.63;;;19.64;86.13
66627;BME280;53498;50.422;14.912;2022-10-16T14:11:46;99414.94;;;19.63;85.58
66627;BME280;53498;50.422;14.912;2022-10-16T14:14:14;99415.88;;;19.60;86.45
66627;BME280;53498;50.422;14.912;2022-10-16T14:16:41;99415.03;;;19.60;86.21
66627;BME280;53498;50.422;14.912;2022-10-16T14:19:19;99424.91;;;19.53;87.21